Time;durP1;ratioP1;P1;durP2;ratioP2;P2;SDS_P1;SDS_P2;PMS_P1;PMS_P2;Temp;Humidity;BMP_temperature;BMP_pressure;BME280_temperature;BME280_humidity;BME280_pressure;Samples;Min_cycle;Max_cycle;Signal;HPM_P1;HPM_P2
2023/08/24 00:01:17;;;;;;;1.38;1.17;;;23.70;60.30;;;;;;4916094;29;20052;-77
2023/08/24 00:03:47;;;;;;;2.88;1.30;;;23.70;60.40;;;;;;4915063;29;20112;-77
2023/08/24 00:06:13;;;;;;;1.65;1.50;;;23.70;60.50;;;;;;4900750;29;20442;-77
2023/08/24 00:08:39;;;;;;;1.25;1.13;;;23.60;60.50;;;;;;4900262;29;20033;-77
2023/08/24 00:11:05;;;;;;;1.27;1.15;;;23.60;60.50;;;;;;4900199;29;20456;-78
2023/08/24 00:13:31;;;;;;;1.73;1.17;;;23.60;60.50;;;;;;4899383;29;20416;-76
2023/08/24 00:15:57;;;;;;;1.48;1.25;;;23.60;60.60;;;;;;4899248;29;20044;-77
2023/08/24 00:18:24;;;;;;;3.53;1.48;;;23.50;60.50;;;;;;4899228;29;20080;-77
2023/08/24 00:20:49;;;;;;;1.55;1.30;;;23.50;60.60;;;;;;4915110;29;20033;-78
2023/08/24 00:23:16;;;;;;;1.42;1.25;;;23.50;60.60;;;;;;4901480;29;20369;-77
2023/08/24 00:25:42;;;;;;;1.85;1.17;;;23.50;60.70;;;;;;4900153;29;20028;-77
2023/08/24 00:28:08;;;;;;;2.05;1.20;;;23.50;60.70;;;;;;4899111;29;20136;-77
2023/08/24 00:30:33;;;;;;;1.25;1.10;;;23.50;60.70;;;;;;4899311;29;20127;-77
2023/08/24 00:32:59;;;;;;;1.40;1.27;;;23.40;60.70;;;;;;4914821;29;20039;-77
2023/08/24 00:35:26;;;;;;;1.35;1.25;;;23.40;60.70;;;;;;4899146;29;20043;-77
2023/08/24 00:37:52;;;;;;;1.05;1.00;;;23.30;60.70;;;;;;4899788;29;20386;-77
2023/08/24 00:40:18;;;;;;;1.38;1.02;;;23.30;60.80;;;;;;4898853;29;20041;-77
2023/08/24 00:42:46;;;;;;;2.05;1.10;;;23.30;60.80;;;;;;4900068;29;20048;-77
2023/08/24 00:45:12;;;;;;;1.65;1.20;;;23.30;60.80;;;;;;4899033;29;20051;-77
2023/08/24 00:47:44;;;;;;;1.90;1.25;;;23.30;60.90;;;;;;4899011;29;20036;-77
2023/08/24 00:50:11;;;;;;;1.58;1.40;;;23.30;61.00;;;;;;4898663;29;20033;-77
2023/08/24 00:52:41;;;;;;;1.60;1.15;;;23.30;61.00;;;;;;4899907;29;20040;-77
2023/08/24 00:55:08;;;;;;;1.73;1.35;;;23.20;61.00;;;;;;4899329;29;20033;-77
2023/08/24 00:57:36;;;;;;;1.10;1.00;;;23.20;61.00;;;;;;4898487;29;20029;-77
2023/08/24 01:00:05;;;;;;;1.52;1.23;;;23.20;61.00;;;;;;4898492;29;20094;-77
2023/08/24 01:02:32;;;;;;;0.90;0.88;;;23.20;61.10;;;;;;4899182;29;20060;-78
2023/08/24 01:04:58;;;;;;;2.28;1.30;;;23.20;61.10;;;;;;4882594;29;20063;-77
2023/08/24 01:07:25;;;;;;;2.65;1.40;;;23.20;61.20;;;;;;4913946;29;20087;-77
2023/08/24 01:09:51;;;;;;;1.40;1.25;;;23.10;61.10;;;;;;4898205;29;20036;-77
2023/08/24 01:12:23;;;;;;;1.38;1.23;;;23.10;61.20;;;;;;4914544;29;20040;-78
2023/08/24 01:15:12;;;;;;;1.30;1.20;;;23.10;61.20;;;;;;4898336;29;20043;-77
2023/08/24 01:17:42;;;;;;;1.90;1.30;;;23.10;61.30;;;;;;4898480;29;20103;-77
2023/08/24 01:20:10;;;;;;;1.45;1.30;;;23.00;61.20;;;;;;4900101;29;20106;-77
2023/08/24 01:22:52;;;;;;;2.10;1.30;;;23.00;61.30;;;;;;4898057;29;20052;-77
2023/08/24 01:25:37;;;;;;;3.13;1.60;;;23.00;61.40;;;;;;4898347;29;20470;-78
2023/08/24 01:28:05;;;;;;;1.73;1.40;;;23.00;61.40;;;;;;4898183;29;20060;-76
2023/08/24 01:30:31;;;;;;;2.38;1.33;;;22.90;61.40;;;;;;4897545;29;20107;-76
2023/08/24 01:32:57;;;;;;;1.70;1.45;;;22.90;61.50;;;;;;4898089;29;20037;-77
2023/08/24 01:35:22;;;;;;;1.85;1.40;;;22.90;61.50;;;;;;4898672;29;20129;-74
2023/08/24 01:37:50;;;;;;;1.45;1.23;;;22.90;61.50;;;;;;4897926;29;20040;-75
2023/08/24 01:40:38;;;;;;;1.42;1.30;;;22.90;61.50;;;;;;4898080;29;20080;-75
2023/08/24 01:43:09;;;;;;;1.63;1.30;;;22.90;61.60;;;;;;4897745;29;20520;-74
2023/08/24 01:45:35;;;;;;;1.45;1.33;;;22.80;61.50;;;;;;4898011;29;20029;-75
2023/08/24 01:48:04;;;;;;;2.40;1.30;;;22.90;61.60;;;;;;4881778;29;20398;-74
2023/08/24 01:50:30;;;;;;;2.40;1.58;;;22.80;61.60;;;;;;4898682;29;20039;-76
2023/08/24 01:52:57;;;;;;;1.83;1.50;;;22.80;61.70;;;;;;4897706;29;20035;-74
2023/08/24 01:55:25;;;;;;;1.65;1.40;;;22.80;61.80;;;;;;4897646;29;20406;-75
2023/08/24 01:57:51;;;;;;;1.83;1.52;;;22.80;61.80;;;;;;4897713;29;20096;-74
2023/08/24 02:00:16;;;;;;;1.50;1.40;;;22.70;61.80;;;;;;4897857;29;20044;-74
2023/08/24 02:02:47;;;;;;;3.03;1.75;;;22.70;61.80;;;;;;4882640;29;20105;-75
2023/08/24 02:05:13;;;;;;;2.50;1.45;;;22.70;61.80;;;;;;4912963;29;20439;-75
2023/08/24 02:07:40;;;;;;;1.83;1.42;;;22.70;61.80;;;;;;4898160;29;20044;-74
2023/08/24 02:10:06;;;;;;;2.03;1.58;;;22.70;61.90;;;;;;4898810;29;20040;-75
2023/08/24 02:12:31;;;;;;;2.45;1.77;;;22.70;61.90;;;;;;4897370;29;20040;-75
2023/08/24 02:14:57;;;;;;;2.33;1.67;;;22.70;61.90;;;;;;4897391;29;20037;-75
2023/08/24 02:17:23;;;;;;;2.60;1.75;;;22.70;62.00;;;;;;4897266;29;20064;-75
2023/08/24 02:19:50;;;;;;;2.47;1.83;;;22.60;62.00;;;;;;4897532;29;20104;-77
2023/08/24 02:22:15;;;;;;;3.47;2.28;;;22.60;62.10;;;;;;4897611;29;20041;-77
2023/08/24 02:24:41;;;;;;;2.45;1.73;;;22.60;62.10;;;;;;4898000;29;20040;-77
2023/08/24 02:27:07;;;;;;;2.65;1.90;;;22.60;62.10;;;;;;4898471;29;20037;-78
2023/08/24 02:29:33;;;;;;;2.78;1.90;;;22.60;62.10;;;;;;4882186;29;20063;-75
2023/08/24 02:31:58;;;;;;;2.70;1.85;;;22.60;62.20;;;;;;4897348;29;20367;-77
2023/08/24 02:34:24;;;;;;;2.75;1.70;;;22.60;62.20;;;;;;4897134;29;20036;-77
2023/08/24 02:36:50;;;;;;;2.35;1.75;;;22.60;62.20;;;;;;4897128;29;20032;-76
2023/08/24 02:39:16;;;;;;;2.70;2.00;;;22.60;62.30;;;;;;4896915;29;20048;-77
2023/08/24 02:41:42;;;;;;;2.35;1.98;;;22.50;62.30;;;;;;4881684;29;20505;-76
2023/08/24 02:44:08;;;;;;;2.40;1.80;;;22.50;62.30;;;;;;4897117;29;20486;-78
2023/08/24 02:46:36;;;;;;;2.20;1.83;;;22.50;62.40;;;;;;4897511;29;20036;-77
2023/08/24 02:49:02;;;;;;;2.55;1.98;;;22.50;62.40;;;;;;4896975;29;20092;-77
2023/08/24 02:51:28;;;;;;;2.10;1.80;;;22.50;62.40;;;;;;4881537;29;20394;-77
2023/08/24 02:53:53;;;;;;;2.25;1.92;;;22.50;62.50;;;;;;4912773;29;20141;-77
2023/08/24 02:56:20;;;;;;;3.30;2.20;;;22.50;62.50;;;;;;4896967;29;20092;-77
2023/08/24 02:58:46;;;;;;;2.65;2.15;;;22.50;62.50;;;;;;4881202;29;20032;-77
2023/08/24 03:01:11;;;;;;;2.00;1.80;;;22.50;62.50;;;;;;4901090;29;20045;-77
2023/08/24 03:03:38;;;;;;;3.20;2.10;;;22.50;62.60;;;;;;4901886;29;20131;-77
2023/08/24 03:06:06;;;;;;;2.75;2.15;;;22.40;62.60;;;;;;4900428;29;20148;-76
2023/08/24 03:08:34;;;;;;;2.80;2.00;;;22.40;62.60;;;;;;4900757;29;20541;-78
2023/08/24 03:11:01;;;;;;;2.53;2.08;;;22.40;62.60;;;;;;4885830;29;20092;-77
2023/08/24 03:13:29;;;;;;;2.42;1.98;;;22.40;62.70;;;;;;4900447;29;20041;-77
2023/08/24 03:15:55;;;;;;;2.85;2.15;;;22.40;62.70;;;;;;4900449;29;20029;-77
2023/08/24 03:18:23;;;;;;;3.72;2.17;;;22.40;62.70;;;;;;4900301;29;20032;-77
2023/08/24 03:20:49;;;;;;;3.10;2.20;;;22.40;62.80;;;;;;4900303;29;20062;-77
2023/08/24 03:23:16;;;;;;;2.78;2.10;;;22.30;62.70;;;;;;4900575;29;20033;-77
2023/08/24 03:25:42;;;;;;;2.95;2.20;;;22.30;62.80;;;;;;4901286;29;20033;-77
2023/08/24 03:28:09;;;;;;;2.63;2.00;;;22.40;62.70;;;;;;4884991;29;20060;-77
2023/08/24 03:30:36;;;;;;;2.95;1.92;;;22.30;62.90;;;;;;4900164;29;20474;-77
2023/08/24 03:33:03;;;;;;;3.00;2.00;;;22.30;62.90;;;;;;4900236;29;20120;-77
2023/08/24 03:35:30;;;;;;;2.80;2.10;;;22.30;62.90;;;;;;4900077;29;20032;-78
2023/08/24 03:37:56;;;;;;;2.70;2.08;;;22.30;62.90;;;;;;4900007;29;20139;-77
2023/08/24 03:40:23;;;;;;;2.40;2.03;;;22.30;62.90;;;;;;4900002;29;20371;-77
2023/08/24 03:42:49;;;;;;;3.22;2.33;;;22.30;63.00;;;;;;4899652;29;20069;-77
2023/08/24 03:45:15;;;;;;;2.55;1.95;;;22.30;63.00;;;;;;4915792;29;20041;-77
2023/08/24 03:47:41;;;;;;;3.20;2.10;;;22.20;63.00;;;;;;4899740;29;20029;-77
2023/08/24 03:50:07;;;;;;;3.58;2.50;;;22.20;63.00;;;;;;4884317;29;20040;-77
2023/08/24 03:52:33;;;;;;;2.35;1.98;;;22.20;63.10;;;;;;4900502;29;20036;-77
2023/08/24 03:54:59;;;;;;;3.60;2.30;;;22.20;63.10;;;;;;4900745;29;20045;-77
2023/08/24 03:57:25;;;;;;;3.08;2.42;;;22.20;63.80;;;;;;4884833;29;20524;-77
2023/08/24 03:59:51;;;;;;;3.53;2.40;;;22.20;63.10;;;;;;4899373;29;20067;-77
2023/08/24 04:02:16;;;;;;;2.40;2.00;;;22.20;63.20;;;;;;4883918;29;20040;-76
2023/08/24 04:04:43;;;;;;;3.28;2.20;;;22.20;63.30;;;;;;4899309;29;20063;-76
2023/08/24 04:07:09;;;;;;;3.00;2.17;;;22.20;63.30;;;;;;4899932;29;20371;-77
2023/08/24 04:09:35;;;;;;;3.33;1.88;;;22.10;63.20;;;;;;4899413;29;20048;-77
2023/08/24 04:12:01;;;;;;;3.45;2.45;;;22.10;63.30;;;;;;4883447;29;20024;-76
2023/08/24 04:14:26;;;;;;;3.00;2.10;;;22.10;63.30;;;;;;4899662;29;20033;-77
2023/08/24 04:16:52;;;;;;;2.75;2.03;;;22.10;63.30;;;;;;4899433;29;20036;-77
2023/08/24 04:19:18;;;;;;;4.70;2.40;;;22.10;63.40;;;;;;4883707;29;20104;-76
2023/08/24 04:21:44;;;;;;;3.13;2.10;;;22.10;63.30;;;;;;4899561;29;20096;-76
2023/08/24 04:24:09;;;;;;;2.63;2.17;;;22.10;63.40;;;;;;4883690;29;20128;-77
2023/08/24 04:26:35;;;;;;;2.80;2.05;;;22.10;63.40;;;;;;4900200;29;20043;-78
2023/08/24 04:29:01;;;;;;;3.95;2.40;;;22.10;63.50;;;;;;4899131;29;20064;-78
2023/08/24 04:31:26;;;;;;;3.22;2.10;;;22.00;63.40;;;;;;4899282;29;20036;-77
2023/08/24 04:33:52;;;;;;;3.67;2.45;;;22.00;63.40;;;;;;4883492;29;20037;-76
2023/08/24 04:36:18;;;;;;;2.33;2.10;;;22.00;63.50;;;;;;4898647;29;20123;-77
2023/08/24 04:38:44;;;;;;;2.75;2.22;;;22.00;63.50;;;;;;4899979;29;20040;-77
2023/08/24 04:41:11;;;;;;;3.70;2.38;;;22.00;63.50;;;;;;4903720;29;20068;-77
2023/08/24 04:43:36;;;;;;;3.10;2.28;;;22.00;63.60;;;;;;4916018;29;20521;-77
2023/08/24 04:46:02;;;;;;;2.40;1.90;;;21.90;63.60;;;;;;4899048;29;20045;-77
2023/08/24 04:48:32;;;;;;;2.80;2.13;;;21.90;63.60;;;;;;4900342;29;20168;-77
2023/08/24 04:50:59;;;;;;;4.47;2.53;;;21.90;63.70;;;;;;4899116;29;20051;-77
2023/08/24 04:53:25;;;;;;;3.08;2.40;;;21.90;63.70;;;;;;4915306;29;20040;-77
2023/08/24 04:55:51;;;;;;;3.45;2.50;;;21.90;63.70;;;;;;4898547;29;20095;-76
2023/08/24 04:58:17;;;;;;;2.50;2.17;;;21.90;63.70;;;;;;4899547;29;20393;-77
2023/08/24 05:00:43;;;;;;;3.25;2.60;;;21.90;63.80;;;;;;4898606;29;20537;-77
2023/08/24 05:03:10;;;;;;;3.15;2.45;;;21.80;63.80;;;;;;4899774;29;20043;-77
2023/08/24 05:05:37;;;;;;;3.45;2.38;;;21.80;63.80;;;;;;4898346;29;20141;-77
2023/08/24 05:08:05;;;;;;;2.20;2.00;;;21.80;63.90;;;;;;4898289;29;20058;-77
2023/08/24 05:10:32;;;;;;;3.20;2.22;;;21.80;63.90;;;;;;4898237;29;20044;-77
2023/08/24 05:12:59;;;;;;;3.20;2.40;;;21.80;63.90;;;;;;4898326;29;20040;-77
2023/08/24 05:15:25;;;;;;;2.80;2.33;;;21.80;64.00;;;;;;4898710;29;20037;-77
2023/08/24 05:17:54;;;;;;;3.40;2.50;;;21.80;64.00;;;;;;4898982;29;20535;-77
2023/08/24 05:20:21;;;;;;;4.55;2.55;;;21.80;64.00;;;;;;4898017;29;20037;-77
2023/08/24 05:22:47;;;;;;;3.15;2.40;;;21.70;64.00;;;;;;4898720;29;20060;-77
2023/08/24 05:25:13;;;;;;;2.83;2.33;;;21.70;64.00;;;;;;4897357;29;20028;-77
2023/08/24 05:27:39;;;;;;;3.88;2.30;;;21.70;64.00;;;;;;4898231;29;20047;-78
2023/08/24 05:30:06;;;;;;;2.90;2.30;;;21.70;64.10;;;;;;4913574;29;20056;-77
2023/08/24 05:32:32;;;;;;;2.97;2.30;;;21.70;64.10;;;;;;4898575;29;20100;-77
2023/08/24 05:34:58;;;;;;;3.97;2.50;;;21.70;64.10;;;;;;4913456;29;20347;-77
2023/08/24 05:37:24;;;;;;;2.95;2.20;;;21.60;64.10;;;;;;4882512;29;20086;-77
2023/08/24 05:39:50;;;;;;;3.55;2.17;;;21.60;64.10;;;;;;4899137;29;20068;-77
2023/08/24 05:42:15;;;;;;;3.72;2.38;;;21.70;64.20;;;;;;4897616;29;20044;-77
2023/08/24 05:44:41;;;;;;;2.63;2.13;;;21.60;64.10;;;;;;4897819;29;20489;-77
2023/08/24 05:47:07;;;;;;;2.78;2.13;;;21.60;64.10;;;;;;4882356;29;20553;-77
2023/08/24 05:49:33;;;;;;;2.70;2.15;;;21.60;64.20;;;;;;4897665;29;20482;-77
2023/08/24 05:51:58;;;;;;;3.40;2.20;;;21.60;64.20;;;;;;4897621;29;20501;-77
2023/08/24 05:54:24;;;;;;;3.78;2.40;;;21.60;64.20;;;;;;4913485;29;20493;-78
2023/08/24 05:56:50;;;;;;;2.50;2.08;;;21.60;64.20;;;;;;4898508;29;20088;-77
2023/08/24 05:59:16;;;;;;;3.30;2.42;;;21.60;64.30;;;;;;4897680;29;20048;-78
2023/08/24 06:01:42;;;;;;;3.00;2.30;;;21.60;64.30;;;;;;4897132;29;20065;-77
2023/08/24 06:04:11;;;;;;;2.75;2.35;;;21.60;64.30;;;;;;4882240;29;20040;-77
2023/08/24 06:06:37;;;;;;;2.78;2.20;;;21.60;64.40;;;;;;4881940;29;20052;-77
2023/08/24 06:09:06;;;;;;;3.08;2.50;;;21.60;64.40;;;;;;4912967;29;20032;-77
2023/08/24 06:11:35;;;;;;;3.33;2.42;;;21.50;64.40;;;;;;4898710;29;20032;-75
2023/08/24 06:14:01;;;;;;;3.33;2.28;;;21.50;64.40;;;;;;4882150;29;20064;-77
2023/08/24 06:16:28;;;;;;;2.78;2.20;;;21.50;64.40;;;;;;4897280;29;20067;-77
2023/08/24 06:18:54;;;;;;;3.70;2.78;;;21.50;64.50;;;;;;4881827;29;20045;-77
2023/08/24 06:21:19;;;;;;;3.83;2.60;;;21.50;64.40;;;;;;4912793;29;20051;-77
2023/08/24 06:23:47;;;;;;;3.03;2.30;;;21.50;65.10;;;;;;4897188;29;20041;-77
2023/08/24 06:26:13;;;;;;;2.10;1.83;;;21.50;64.50;;;;;;4882177;29;20104;-77
2023/08/24 06:28:39;;;;;;;3.22;2.50;;;21.50;64.50;;;;;;4897167;29;20549;-77
2023/08/24 06:31:07;;;;;;;4.93;2.58;;;21.50;64.50;;;;;;4898312;29;20036;-77
2023/08/24 06:33:34;;;;;;;4.07;2.72;;;21.50;64.60;;;;;;4914675;29;20037;-76
2023/08/24 06:36:01;;;;;;;4.15;2.63;;;21.50;64.60;;;;;;4899778;29;20033;-77
2023/08/24 06:38:27;;;;;;;2.95;2.22;;;21.60;64.60;;;;;;4901953;29;20032;-76
2023/08/24 06:40:52;;;;;;;4.13;2.47;;;21.60;64.60;;;;;;4902823;29;20039;-77
2023/08/24 06:43:18;;;;;;;3.08;2.55;;;21.60;64.60;;;;;;4900997;29;20124;-77
2023/08/24 06:45:44;;;;;;;3.88;2.70;;;21.50;64.60;;;;;;4901347;29;20032;-78
2023/08/24 06:48:10;;;;;;;3.35;2.60;;;21.60;64.70;;;;;;4901294;29;20032;-77
2023/08/24 06:50:36;;;;;;;3.05;2.40;;;21.60;64.70;;;;;;4886089;29;20048;-77
2023/08/24 06:53:03;;;;;;;3.90;2.50;;;21.50;64.70;;;;;;4917335;29;20036;-77
2023/08/24 06:55:29;;;;;;;3.25;2.38;;;21.60;64.70;;;;;;4885205;29;20025;-77
2023/08/24 06:57:55;;;;;;;4.03;2.70;;;21.60;64.70;;;;;;4900728;29;20557;-77
2023/08/24 07:00:22;;;;;;;3.22;2.53;;;21.60;64.70;;;;;;4900754;29;20128;-77
2023/08/24 07:02:49;;;;;;;3.30;2.25;;;21.60;64.70;;;;;;4901643;29;20041;-77
2023/08/24 07:05:18;;;;;;;3.20;2.25;;;21.60;64.70;;;;;;4902156;29;20056;-77
2023/08/24 07:07:45;;;;;;;3.97;2.58;;;21.60;64.70;;;;;;4900485;29;20039;-79
2023/08/24 07:10:12;;;;;;;3.35;2.45;;;21.60;64.70;;;;;;4900593;29;20028;-79
2023/08/24 07:12:40;;;;;;;2.88;2.25;;;21.60;64.70;;;;;;4900858;29;20064;-79
2023/08/24 07:15:07;;;;;;;3.55;2.70;;;21.60;64.70;;;;;;4900489;29;20036;-78
2023/08/24 07:17:33;;;;;;;3.17;2.50;;;21.60;64.70;;;;;;4884674;29;20064;-78
2023/08/24 07:19:59;;;;;;;3.42;2.63;;;21.60;64.70;;;;;;4885217;29;20470;-77
2023/08/24 07:22:27;;;;;;;3.97;2.70;;;21.60;64.70;;;;;;4884927;29;20498;-79
2023/08/24 07:24:53;;;;;;;3.47;2.67;;;21.60;64.70;;;;;;4900463;29;20039;-79
2023/08/24 07:27:20;;;;;;;4.10;2.67;;;21.70;64.80;;;;;;4900567;29;20478;-80
2023/08/24 07:29:45;;;;;;;3.53;2.70;;;21.70;64.80;;;;;;4900608;29;20045;-79
2023/08/24 07:32:11;;;;;;;4.13;3.00;;;21.70;64.80;;;;;;4915881;29;20036;-79
2023/08/24 07:34:37;;;;;;;3.70;2.90;;;21.70;64.80;;;;;;4899945;29;20032;-79
2023/08/24 07:37:03;;;;;;;3.88;2.90;;;21.70;64.80;;;;;;4899860;29;20063;-79
2023/08/24 07:39:29;;;;;;;3.63;2.97;;;21.70;64.80;;;;;;4900122;29;20092;-79
2023/08/24 07:41:55;;;;;;;3.53;2.67;;;21.80;64.90;;;;;;4901691;29;20033;-79
2023/08/24 07:44:21;;;;;;;4.05;3.10;;;21.70;64.90;;;;;;4900980;29;20124;-79
2023/08/24 07:46:50;;;;;;;4.07;3.08;;;21.80;65.00;;;;;;4884071;29;20147;-78
2023/08/24 07:49:15;;;;;;;3.88;2.67;;;21.80;65.00;;;;;;4901933;29;20059;-78
2023/08/24 07:51:42;;;;;;;4.03;2.85;;;21.80;64.90;;;;;;4899745;29;20033;-79
2023/08/24 07:54:08;;;;;;;4.28;3.10;;;21.80;64.90;;;;;;4899820;29;20032;-79
2023/08/24 07:56:35;;;;;;;3.25;2.50;;;21.80;65.00;;;;;;4899995;29;20029;-78
2023/08/24 07:59:01;;;;;;;4.03;2.88;;;21.80;65.00;;;;;;4899910;29;20492;-78
2023/08/24 08:01:26;;;;;;;4.30;2.78;;;21.90;65.00;;;;;;4900187;29;20108;-79
2023/08/24 08:03:53;;;;;;;4.47;2.85;;;21.90;65.00;;;;;;4900683;29;20115;-78
2023/08/24 08:06:18;;;;;;;4.63;3.00;;;21.90;65.00;;;;;;4884754;29;20059;-79
2023/08/24 08:08:46;;;;;;;4.15;2.97;;;21.90;65.00;;;;;;4899611;29;20037;-78
2023/08/24 08:11:12;;;;;;;3.55;2.92;;;21.90;65.00;;;;;;4915138;29;20462;-80
2023/08/24 08:13:37;;;;;;;4.35;3.33;;;21.90;65.00;;;;;;4883839;29;20041;-77
2023/08/24 08:16:04;;;;;;;3.63;2.95;;;21.90;65.00;;;;;;4899480;29;20037;-77
2023/08/24 08:18:32;;;;;;;4.45;3.05;;;22.00;65.10;;;;;;4899313;29;20040;-77
2023/08/24 08:20:58;;;;;;;4.78;3.25;;;22.00;65.10;;;;;;4915735;29;20037;-77
2023/08/24 08:23:24;;;;;;;4.60;3.25;;;22.00;65.10;;;;;;4899015;29;20055;-76
2023/08/24 08:25:50;;;;;;;6.07;3.05;;;22.00;65.00;;;;;;4884462;29;20029;-77
2023/08/24 08:28:17;;;;;;;4.32;3.25;;;22.10;65.00;;;;;;4899519;29;20489;-77
2023/08/24 08:30:44;;;;;;;4.70;3.40;;;22.10;65.00;;;;;;4899295;29;20127;-76
2023/08/24 08:33:10;;;;;;;4.65;3.22;;;22.20;65.00;;;;;;4914471;29;20450;-74
2023/08/24 08:35:38;;;;;;;4.20;3.08;;;22.20;64.90;;;;;;4900223;29;20048;-74
2023/08/24 08:38:05;;;;;;;3.97;2.92;;;22.30;64.90;;;;;;4898921;29;20044;-75
2023/08/24 08:40:31;;;;;;;4.82;3.25;;;22.30;64.80;;;;;;4900191;29;20036;-75
2023/08/24 08:43:00;;;;;;;4.53;3.10;;;22.30;64.70;;;;;;4914420;29;20072;-76
2023/08/24 08:45:26;;;;;;;4.43;3.03;;;22.40;64.80;;;;;;4899097;29;20036;-76
2023/08/24 08:47:57;;;;;;;4.45;3.63;;;22.40;64.70;;;;;;4898641;29;20032;-76
2023/08/24 08:50:24;;;;;;;3.97;3.15;;;22.50;64.80;;;;;;4914634;29;20032;-76
2023/08/24 08:52:49;;;;;;;4.40;3.30;;;22.60;64.70;;;;;;4900171;29;20113;-79
2023/08/24 08:55:15;;;;;;;4.15;3.15;;;22.60;64.60;;;;;;4914205;29;20184;-76
2023/08/24 08:57:42;;;;;;;4.10;3.00;;;22.70;64.70;;;;;;4898393;29;20037;-78
2023/08/24 09:00:12;;;;;;;4.57;3.17;;;22.70;64.60;;;;;;4883582;29;20482;-84
2023/08/24 09:02:42;;;;;;;4.50;3.30;;;22.80;64.60;;;;;;4898205;29;20123;-76
2023/08/24 09:05:08;;;;;;;3.65;2.95;;;22.90;64.60;;;;;;4898351;29;20044;-75
2023/08/24 09:07:35;;;;;;;4.18;3.17;;;22.90;65.10;;;;;;4883662;29;20415;-75
2023/08/24 09:10:03;;;;;;;4.45;3.22;;;23.00;64.50;;;;;;4898699;29;20486;-76
2023/08/24 09:12:34;;;;;;;3.92;3.00;;;23.10;64.40;;;;;;4913857;29;20033;-75
2023/08/24 09:15:00;;;;;;;4.90;3.13;;;23.10;64.40;;;;;;4900382;29;20040;-75
2023/08/24 09:17:26;;;;;;;4.40;3.15;;;23.20;64.30;;;;;;4914015;29;20502;-75
2023/08/24 09:19:57;;;;;;;4.78;2.72;;;23.20;64.30;;;;;;4898919;29;20535;-76
2023/08/24 09:22:23;;;;;;;4.40;3.15;;;23.30;64.30;;;;;;4898104;29;20108;-76
2023/08/24 09:24:54;;;;;;;4.07;3.10;;;23.40;64.20;;;;;;4883416;29;20447;-75
2023/08/24 09:27:21;;;;;;;4.53;3.00;;;23.40;64.20;;;;;;4898352;29;20032;-75
2023/08/24 09:29:52;;;;;;;4.47;2.80;;;23.50;64.10;;;;;;4898085;29;20484;-76
2023/08/24 09:32:33;;;;;;;4.35;3.13;;;23.60;64.10;;;;;;4898289;29;20107;-75
2023/08/24 09:35:08;;;;;;;4.40;3.15;;;23.70;64.10;;;;;;4898996;29;20041;-75
2023/08/24 09:37:35;;;;;;;4.70;3.20;;;23.80;64.00;;;;;;4899492;29;20055;-75
2023/08/24 09:40:08;;;;;;;4.90;3.33;;;23.80;63.90;;;;;;4882342;29;20123;-75
2023/08/24 09:42:43;;;;;;;4.47;3.15;;;23.90;63.90;;;;;;4898094;29;20104;-75
2023/08/24 09:45:12;;;;;;;5.80;3.10;;;24.00;63.90;;;;;;4882316;29;20024;-75
2023/08/24 09:47:38;;;;;;;4.38;2.85;;;24.00;63.70;;;;;;4897809;29;20043;-76
2023/08/24 09:50:05;;;;;;;4.55;3.17;;;24.10;63.70;;;;;;4914000;29;20036;-76
2023/08/24 09:52:34;;;;;;;4.28;2.97;;;24.20;63.70;;;;;;4897802;29;20036;-76
2023/08/24 09:55:10;;;;;;;4.55;3.20;;;24.20;63.60;;;;;;4897646;29;20092;-76
2023/08/24 09:57:39;;;;;;;4.45;2.83;;;24.40;63.60;;;;;;4882423;29;20214;-76
2023/08/24 10:00:10;;;;;;;3.92;2.75;;;24.40;64.10;;;;;;4897799;29;20041;-76
2023/08/24 10:02:51;;;;;;;4.65;2.97;;;24.40;63.40;;;;;;4897472;29;20125;-76
2023/08/24 10:05:20;;;;;;;4.45;2.92;;;24.50;63.40;;;;;;4897041;29;20079;-76
2023/08/24 10:07:56;;;;;;;3.92;3.10;;;24.60;63.40;;;;;;4897483;29;20040;-76
2023/08/24 10:10:25;;;;;;;3.70;2.40;;;24.60;63.40;;;;;;4896888;29;20024;-75
2023/08/24 10:12:56;;;;;;;5.47;2.80;;;24.70;63.30;;;;;;4898856;29;20443;-76
2023/08/24 10:15:23;;;;;;;3.38;2.78;;;24.80;63.30;;;;;;4898009;29;20366;-76
2023/08/24 10:17:50;;;;;;;3.83;2.60;;;24.80;63.20;;;;;;4897597;29;20064;-75
2023/08/24 10:20:19;;;;;;;3.95;2.50;;;24.90;63.90;;;;;;4898759;29;20045;-75
2023/08/24 10:22:46;;;;;;;4.45;2.83;;;25.00;63.30;;;;;;4882069;29;20041;-75
2023/08/24 10:25:13;;;;;;;4.85;2.75;;;25.10;63.30;;;;;;4898713;29;20047;-76
2023/08/24 10:27:43;;;;;;;3.28;2.55;;;25.10;63.30;;;;;;4897033;29;20047;-75
2023/08/24 10:30:13;;;;;;;3.17;2.38;;;25.20;63.30;;;;;;4897554;29;20046;-76
2023/08/24 10:32:40;;;;;;;3.47;2.63;;;25.20;63.30;;;;;;4897447;29;20048;-75
2023/08/24 10:35:07;;;;;;;2.88;2.05;;;25.30;63.30;;;;;;4882087;29;20037;-76
2023/08/24 10:37:35;;;;;;;2.90;2.10;;;25.30;63.20;;;;;;4897440;29;20033;-76
2023/08/24 10:40:03;;;;;;;4.05;2.80;;;25.30;63.20;;;;;;4898023;29;20089;-77
2023/08/24 10:42:43;;;;;;;3.22;2.38;;;25.40;63.30;;;;;;4898066;29;20115;-76
2023/08/24 10:45:10;;;;;;;3.55;2.72;;;25.40;63.30;;;;;;4912529;29;20040;-76
2023/08/24 10:47:45;;;;;;;3.08;2.28;;;25.50;63.20;;;;;;4882223;29;20043;-75
2023/08/24 10:50:11;;;;;;;3.17;2.22;;;25.50;63.20;;;;;;4897507;29;20033;-75
2023/08/24 10:52:39;;;;;;;5.65;2.22;;;25.50;63.10;;;;;;4897180;29;20116;-76
2023/08/24 10:55:22;;;;;;;2.88;2.13;;;25.60;63.10;;;;;;4897249;29;20036;-76
2023/08/24 10:57:59;;;;;;;2.90;2.10;;;25.60;63.20;;;;;;4898738;29;20033;-75
2023/08/24 11:00:30;;;;;;;2.88;2.30;;;25.60;63.00;;;;;;4897462;29;20343;-76
2023/08/24 11:02:57;;;;;;;3.10;2.20;;;25.70;63.00;;;;;;4881837;29;20430;-76
2023/08/24 11:05:30;;;;;;;3.45;2.33;;;25.70;63.00;;;;;;4896691;29;20143;-75
2023/08/24 11:08:01;;;;;;;2.75;1.90;;;25.70;63.00;;;;;;4898398;29;20032;-76
2023/08/24 11:10:47;;;;;;;2.20;1.83;;;25.70;62.90;;;;;;4897811;29;20032;-75
2023/08/24 11:13:14;;;;;;;2.50;1.67;;;25.70;63.30;;;;;;4896010;29;20054;-76
2023/08/24 11:15:45;;;;;;;3.00;2.03;;;25.70;62.90;;;;;;4897080;29;20089;-76
2023/08/24 11:18:29;;;;;;;2.72;1.90;;;25.70;62.90;;;;;;4898442;29;20050;-75
2023/08/24 11:21:05;;;;;;;2.40;1.80;;;25.70;63.00;;;;;;4913608;29;20060;-75
2023/08/24 11:23:31;;;;;;;2.25;1.88;;;25.80;62.90;;;;;;4884770;29;20036;-75
2023/08/24 11:26:00;;;;;;;3.58;1.88;;;25.80;62.90;;;;;;4884817;29;20131;-75
2023/08/24 11:28:31;;;;;;;2.50;1.95;;;25.80;62.90;;;;;;4900348;29;20127;-76
2023/08/24 11:30:58;;;;;;;2.33;1.90;;;25.80;62.90;;;;;;4900379;29;20060;-76
2023/08/24 11:33:34;;;;;;;2.95;2.00;;;25.80;62.90;;;;;;4916017;29;20032;-76
2023/08/24 11:36:02;;;;;;;2.00;1.80;;;25.90;62.90;;;;;;4901200;29;20033;-76
2023/08/24 11:38:42;;;;;;;2.22;1.80;;;25.90;62.90;;;;;;4901097;29;20033;-77
2023/08/24 11:41:18;;;;;;;2.47;1.98;;;25.80;62.90;;;;;;4901633;29;20096;-76
2023/08/24 11:43:45;;;;;;;2.47;2.00;;;25.80;62.90;;;;;;4901713;29;20061;-76
2023/08/24 11:46:11;;;;;;;2.35;1.80;;;25.90;62.80;;;;;;4900204;29;20021;-75
2023/08/24 11:48:39;;;;;;;2.38;1.67;;;25.90;62.90;;;;;;4900441;29;20036;-76
2023/08/24 11:51:09;;;;;;;2.78;1.88;;;25.90;62.80;;;;;;4915684;29;20410;-76
2023/08/24 11:53:42;;;;;;;2.10;1.90;;;25.90;62.90;;;;;;4884293;29;20033;-76
2023/08/24 11:56:10;;;;;;;2.07;1.70;;;26.00;62.90;;;;;;4899925;29;20067;-76
2023/08/24 11:58:39;;;;;;;2.92;2.33;;;26.00;62.80;;;;;;4899668;29;20044;-76
2023/08/24 12:01:05;;;;;;;2.38;1.75;;;26.00;62.80;;;;;;4899780;29;20032;-76
2023/08/24 12:03:31;;;;;;;2.85;1.90;;;26.00;62.70;;;;;;4899612;29;20397;-76
2023/08/24 12:06:01;;;;;;;2.10;1.77;;;26.00;62.70;;;;;;4899469;29;20059;-76
2023/08/24 12:08:27;;;;;;;2.25;1.90;;;26.00;62.70;;;;;;4899594;29;20048;-76
2023/08/24 12:10:52;;;;;;;3.05;2.03;;;26.10;62.80;;;;;;4900156;29;20044;-77
2023/08/24 12:13:18;;;;;;;2.55;1.90;;;26.10;62.80;;;;;;4899167;29;20477;-78
2023/08/24 12:15:47;;;;;;;1.92;1.70;;;26.10;62.80;;;;;;4900481;29;20393;-76
2023/08/24 12:18:15;;;;;;;2.78;1.83;;;26.10;62.70;;;;;;4883853;29;20123;-76
2023/08/24 12:20:41;;;;;;;3.25;2.20;;;26.10;62.70;;;;;;4899571;29;20033;-76
2023/08/24 12:23:07;;;;;;;2.55;1.77;;;26.20;62.70;;;;;;4883747;29;20041;-77
2023/08/24 12:25:40;;;;;;;2.60;1.98;;;26.20;62.80;;;;;;4899155;29;20047;-77
2023/08/24 12:28:14;;;;;;;2.80;2.00;;;26.20;62.70;;;;;;4899144;29;20220;-79
2023/08/24 12:30:51;;;;;;;2.08;1.75;;;26.20;62.70;;;;;;4900432;29;20092;-78
2023/08/24 12:33:21;;;;;;;2.45;1.80;;;26.20;62.70;;;;;;4900095;29;20481;-78
2023/08/24 12:35:47;;;;;;;2.83;2.30;;;26.30;62.70;;;;;;4899886;29;20478;-77
2023/08/24 12:38:13;;;;;;;2.85;2.13;;;26.30;62.70;;;;;;4899747;29;20051;-78
2023/08/24 12:40:38;;;;;;;2.83;2.03;;;26.30;62.70;;;;;;4899977;29;20037;-78
2023/08/24 12:43:04;;;;;;;2.42;1.80;;;26.30;62.70;;;;;;4914455;29;20375;-78
2023/08/24 12:45:31;;;;;;;2.45;1.88;;;26.30;62.60;;;;;;4898606;29;20040;-77
2023/08/24 12:47:57;;;;;;;3.63;2.35;;;26.40;62.60;;;;;;4898749;29;20517;-78
2023/08/24 12:50:23;;;;;;;2.95;2.13;;;26.40;62.50;;;;;;4883615;29;20056;-77